Waynesville, Missouri
Current Conditions -  °F | °C
As of 12:58 PM on Sunday 23 Nov 2014 (Local Time) from KTBN Reporting Station
Overcast Overcast  
Wind Chill: 54°   Ceiling: 500
Heat Index: 54°   Visibility: 10mi
Dew Point: 54°   Wind: 10mph
Humidity: 100%   Direction: 140°SE
Pressure: 29.41"   Gusts: NA
Location:  37.83°N, 92.2°W
Report Text: KTBN 231858Z AUTO 14009KT 10SM OVC005 12/12 A2941 RMK AO2 RAE1839DZB1839E1842 SLP961 P0003 T01230123
Loading
Personal Weather Stations






























Interactive Weather Map New forecast layout! Learn more

10-Day Weather Forecast

Advertisements
Track Severe Weather on mobile